NCAR-RAP Real-Time Weather Data

Output produced by METARs form (19 June 2019  10:40 UTC)
found at http://weather.rap.ucar.edu/surface/
 
KSUX 191030Z AUTO 32004KT 1/4SM R31/1400V2200FT FG VV002 11/11 A2985 RMK AO2 T01110111
KSUX 191022Z AUTO 33005KT 1/2SM R31/1800V2400FT FG VV003 11/11 A2985 RMK AO2 T01110111
KSUX 191002Z AUTO 30004KT 1/4SM R31/1400FT FG VV002 12/12 A2986 RMK AO2 T01170117
KSUX 190952Z AUTO 28003KT 1/4SM R31/1200V2000FT FG VV001 12/12 A2986 RMK AO2 SLP109 T01170117
KSUX 190944Z AUTO 27003KT 1/4SM R31/1600V2600FT FG VV002 12/12 A2986 RMK AO2 T01170117
KSUX 190934Z AUTO 28003KT 1/2SM R31/3000VP6000FT FG VV004 12/12 A2985 RMK AO2 T01220117
KSUX 190918Z AUTO 28004KT 1 1/2SM BR CLR 12/12 A2985 RMK AO2 T01220117
KSUX 190852Z AUTO 32004KT 2 1/2SM BR CLR 12/12 A2984 RMK AO2 SLP103 T01220122 58016
KSUX 190841Z AUTO 31004KT 3SM BR FEW003 12/12 A2984 RMK AO2 T01220122
KSUX 190837Z AUTO 32003KT 1 1/4SM BR FEW003 12/12 A2984 RMK AO2 T01220122
KSUX 190827Z AUTO 34005KT 3/4SM R31/P6000FT BR VV003 12/12 A2984 RMK AO2 T01220122
KSUX 190824Z AUTO 33005KT 1 1/2SM BR SCT003 12/12 A2984 RMK AO2 T01220122
KSUX 190816Z AUTO 33005KT 4SM BR SCT001 12/12 A2984 RMK AO2 T01220122
KSUX 190749Z AUTO 31004KT 4SM BR CLR 13/12 A2987 RMK AO2 SLP113 T01280122
KSUX 190748Z AUTO 31004KT 3SM BR CLR 12/12 A2987 RMK AO2
KSUX 190729Z AUTO 27003KT 1/2SM R31/3000VP6000FT FG CLR 12/12 A2988 RMK AO2 T01170117
KSUX 190714Z AUTO 26003KT 3/4SM R31/2400VP6000FT BR VV003 12/12 A2988 RMK AO2 T01220122
KSUX 190711Z AUTO 00000KT 1 1/4SM R31/2400VP6000FT BR FEW004 12/12 A2988 RMK AO2 T01220122
KSUX 190652Z AUTO 27003KT 1/2SM R31/1600V6000FT FG VV004 12/12 A2988 RMK AO2 SLP117 T01220122
KSUX 190633Z AUTO 00000KT 1/2SM R31/P6000FT FG CLR 13/13 A2988 RMK AO2 T01280128
KSUX 190622Z AUTO 00000KT 1 1/2SM BR CLR 13/13 A2988 RMK AO2 T01330133
KSUX 190552Z AUTO 00000KT 5SM BR CLR 14/14 A2989 RMK AO2 SLP119 60000 T01440139 10194 20133 402060133 58008
KSUX 190549Z AUTO 35003KT 5SM BR CLR 14/14 A2989 RMK AO2
KSUX 190542Z AUTO 34003KT 2 1/2SM BR CLR 14/13 A2989 RMK AO2 T01390133
KSUX 190452Z AUTO 33003KT 5SM BR CLR 14/14 A2991 RMK AO2 RAB00E17 SLP128 P0000 T01440139
KSUX 190352Z AUTO 00000KT 8SM CLR 16/15 A2991 RMK AO2 RAE0257 SLP127 P0000 T01560150
KSUX 190252Z AUTO 00000KT 10SM -RA CLR 17/15 A2991 RMK AO2 RAB37 SLP125 P0000 60000 T01670150 55003
KSUX 190152Z 00000KT 10SM CLR 18/16 A2990 RMK AO2 SLP124 T01780161
KSUX 190052Z 18003KT 10SM CLR 19/16 A2991 RMK AO2 SLP124 T01890156
KSUX 182352Z 18006KT 10SM SCT110 19/16 A2991 RMK AO2 SLP126 T01940156 10206 20189 56013
KSUX 182252Z 15006KT 10SM CLR 20/15 A2992 RMK AO2 SLP129 T02000150
KSUX 182152Z 13006KT 10SM CLR 20/14 A2993 RMK AO2 SLP132 T02000144
KSUX 182052Z 13005KT 10SM SCT110 20/14 A2995 RMK AO2 SLP138 T02000144 58013
KSUX 181952Z 09006KT 10SM OVC110 21/14 A2996 RMK AO2 SLP141 T02060144
KSUX 181852Z 08004KT 10SM OVC100 19/14 A2998 RMK AO2 SLP149 T01940144
KSUX 181752Z 04006KT 10SM OVC100 19/15 A2999 RMK AO2 SLP151 60083 T01940150 10194 20156 58005
KSUX 181652Z 04005KT 10SM OVC095 19/15 A3000 RMK AO2 SLP153 T01890150
KSUX 181552Z 05008KT 10SM OVC060 18/16 A3000 RMK AO2 SLP156 T01830156
KSUX 181452Z 07005KT 10SM SCT046 OVC065 17/15 A3001 RMK AO2 RAE51 SLP158 P0005 60083 T01670150 53004
KSUX 181356Z 06007KT 3SM RA BR SCT025 OVC030 16/14 A3001 RMK AO2 P0001 T01560144
KSUX 181352Z 06008G17KT 2SM R31/6000VP6000FT RA BR BKN025 OVC030 16/14 A3000 RMK AO2 SLP157 P0022 T01560144